Time;durP1;ratioP1;P1;durP2;ratioP2;P2;SDS_P1;SDS_P2;PMS_P1;PMS_P2;Temp;Humidity;BMP_temperature;BMP_pressure;BME280_temperature;BME280_humidity;BME280_pressure;Samples;Min_cycle;Max_cycle;Signal;HPM_P1;HPM_P2
2022/12/18 00:01:07;;;;;;;;;69.00;50.75;;;;;-2.87;71.46;102072.25;5052759;28;45820;-68
2022/12/18 00:03:33;;;;;;;;;72.25;55.25;;;;;-2.83;71.39;102064.00;5066411;28;45826;-66
2022/12/18 00:05:59;;;;;;;;;80.25;55.25;;;;;-2.75;71.46;102069.72;5065050;28;45774;-66
2022/12/18 00:08:25;;;;;;;;;75.33;54.67;;;;;-2.66;71.03;102078.09;5069193;28;45699;-64
2022/12/18 00:10:50;;;;;;;;;67.00;52.00;;;;;-2.57;70.25;102085.63;5047682;28;47168;-65
2022/12/18 00:13:16;;;;;;;;;80.00;55.67;;;;;-2.42;70.15;102080.75;5067323;27;45618;-64
2022/12/18 00:15:42;;;;;;;;;77.50;54.50;;;;;-2.41;69.60;102065.50;5066656;28;45407;-65
2022/12/18 00:18:08;;;;;;;;;72.00;54.33;;;;;-2.36;68.70;102068.41;5052816;28;45519;-65
2022/12/18 00:20:38;;;;;;;;;72.75;51.75;;;;;-2.35;69.13;102070.19;5068245;28;45629;-65
2022/12/18 00:23:05;;;;;;;;;72.50;54.00;;;;;-2.36;68.77;102073.53;5069466;28;45610;-64
2022/12/18 00:25:39;;;;;;;;;68.00;53.00;;;;;-2.39;68.65;102065.63;5051539;27;45478;-63
2022/12/18 00:28:04;;;;;;;;;69.67;52.67;;;;;-2.38;69.05;102080.22;5066818;28;45392;-64
2022/12/18 00:30:30;;;;;;;;;74.67;54.00;;;;;-2.37;68.16;102074.31;5067632;28;45521;-62
2022/12/18 00:32:57;;;;;;;;;62.67;49.67;;;;;-2.39;69.17;102065.63;5063855;28;45439;-64
2022/12/18 00:35:23;;;;;;;;;75.67;55.67;;;;;-2.29;68.20;102082.59;5061898;28;45467;-63
2022/12/18 00:37:48;;;;;;;;;76.00;54.00;;;;;-2.69;68.52;102008.63;5064806;28;45680;-64
2022/12/18 00:40:14;;;;;;;;;77.67;55.33;;;;;-2.34;67.55;102074.53;5062267;28;46382;-63
2022/12/18 00:42:57;;;;;;;;;78.67;57.00;;;;;-2.27;67.67;102086.19;5069760;28;45359;-64
2022/12/18 00:45:25;;;;;;;;;69.25;53.00;;;;;-2.28;67.66;102082.69;5091959;27;45521;-64
2022/12/18 00:47:51;;;;;;;;;73.33;51.33;;;;;-2.33;67.64;102075.44;5075274;28;45596;-65
2022/12/18 00:50:17;;;;;;;;;70.00;50.67;;;;;-2.24;67.91;102094.97;5072972;28;46461;-63
2022/12/18 00:52:43;;;;;;;;;78.67;54.33;;;;;-2.25;67.47;102094.88;5069998;28;45652;-65
2022/12/18 00:55:09;;;;;;;;;75.75;58.75;;;;;-2.25;67.57;102082.06;5053017;28;45908;-64
2022/12/18 00:57:35;;;;;;;;;69.33;53.00;;;;;-2.23;67.42;102078.81;5052925;28;45560;-65
2022/12/18 01:00:01;;;;;;;;;71.00;55.00;;;;;-2.36;67.73;102078.66;5052978;28;47184;-64
2022/12/18 01:02:26;;;;;;;;;74.00;54.33;;;;;-2.35;67.52;102075.31;5089001;27;45895;-64
2022/12/18 01:04:52;;;;;;;;;65.33;49.00;;;;;-2.34;67.08;102071.97;5053352;28;45654;-64
2022/12/18 01:07:18;;;;;;;;;71.67;56.00;;;;;-2.46;66.69;102045.41;5053626;28;45524;-63
2022/12/18 01:09:43;;;;;;;;;75.00;55.67;;;;;-2.29;66.91;102073.22;5085419;27;47139;-63
2022/12/18 01:12:09;;;;;;;;;71.00;53.67;;;;;-2.49;66.62;102048.63;5071377;28;45884;-63
2022/12/18 01:14:34;;;;;;;;;76.33;55.67;;;;;-2.47;66.80;102065.00;5070909;28;45442;-64
2022/12/18 01:17:02;;;;;;;;;76.00;56.75;;;;;-2.60;66.94;102060.63;5072682;28;46093;-64
2022/12/18 01:19:28;;;;;;;;;77.67;55.00;;;;;-2.70;67.23;102050.47;5076674;28;45532;-63
2022/12/18 01:21:53;;;;;;;;;80.25;56.25;;;;;-2.64;67.36;102057.72;5078091;28;45381;-65
2022/12/18 01:24:19;;;;;;;;;77.50;56.50;;;;;-2.61;67.15;102065.63;5060849;28;45817;-64
2022/12/18 01:26:45;;;;;;;;;72.33;51.67;;;;;-2.68;67.06;102053.13;5077326;28;45482;-65
2022/12/18 01:29:10;;;;;;;;;78.00;54.33;;;;;-2.57;67.50;102071.13;5074304;27;46219;-66
2022/12/18 01:31:36;;;;;;;;;69.25;53.75;;;;;-2.56;66.98;102069.47;5054773;28;45514;-65
2022/12/18 01:34:04;;;;;;;;;67.00;49.50;;;;;-2.56;67.61;102070.34;5060923;27;45464;-63
2022/12/18 01:36:38;;;;;;;;;73.33;54.67;;;;;-2.63;67.68;102057.84;5079509;27;45269;-65
2022/12/18 01:39:10;;;;;;;;;71.00;53.67;;;;;-2.73;67.05;102045.06;5065456;27;46121;-64
2022/12/18 01:44:46;;;;;;;;;79.25;54.25;;;;;-2.54;67.75;102074.69;5072069;27;45556;-63
2022/12/18 01:47:18;;;;;;;;;74.67;55.00;;;;;-2.56;67.08;102054.09;5055848;28;45511;-64
2022/12/18 01:49:43;;;;;;;;;68.33;52.33;;;;;-2.53;66.98;102058.53;5054479;28;47841;-63
2022/12/18 01:52:09;;;;;;;;;76.50;55.75;;;;;-2.51;67.29;102052.75;5057688;28;45229;-65
2022/12/18 01:54:34;;;;;;;;;72.50;53.50;;;;;-2.65;67.26;102044.00;5055640;28;45522;-66
2022/12/18 01:57:00;;;;;;;;;68.75;53.00;;;;;-2.57;67.39;102052.28;5042039;28;45686;-66
2022/12/18 01:59:29;;;;;;;;;80.50;55.50;;;;;-2.57;67.25;102052.28;5052390;28;46838;-65
2022/12/18 02:01:55;;;;;;;;;69.75;54.00;;;;;-2.51;67.03;102057.00;5069262;27;45472;-66
2022/12/18 02:04:25;;;;;;;;;75.00;54.50;;;;;-2.57;66.95;102047.16;5074326;27;45827;-68
2022/12/18 02:07:11;;;;;;;;;73.67;53.67;;;;;-2.64;67.08;102043.22;5059606;27;45474;-66
2022/12/18 02:09:46;;;;;;;;;79.00;54.67;;;;;-2.81;67.41;102028.22;5071630;27;45531;-65
2022/12/18 02:12:19;;;;;;;;;84.67;53.67;;;;;-2.71;68.19;102032.38;5073825;27;45451;-65
2022/12/18 02:15:06;;;;;;;;;78.50;55.25;;;;;-2.72;68.01;102021.22;5073914;27;45570;-66
2022/12/18 02:17:55;;;;;;;;;74.33;57.33;;;;;-2.62;67.74;102027.94;5069639;27;45426;-64
2022/12/18 02:20:50;;;;;;;;;77.00;55.00;;;;;-2.71;68.46;102042.63;5072883;27;45636;-65
2022/12/18 02:23:38;;;;;;;;;78.00;54.75;;;;;-2.79;68.54;102036.94;5043558;27;45525;-65
2022/12/18 02:26:17;;;;;;;;;68.75;50.25;;;;;-2.86;68.86;102024.41;5055838;27;45753;-64
2022/12/18 02:28:49;;;;;;;;;69.75;52.50;;;;;-2.96;68.39;102006.56;5071742;27;45504;-65
2022/12/18 02:31:28;;;;;;;;;76.00;58.25;;;;;-2.79;68.56;102014.75;5072148;27;47259;-65
2022/12/18 02:33:58;;;;;;;;;77.25;56.75;;;;;-2.85;68.33;102019.41;5070895;27;45390;-63
2022/12/18 02:36:27;;;;;;;;;71.33;55.67;;;;;-2.92;68.53;102023.94;5061926;27;46751;-65
2022/12/18 02:38:55;;;;;;;;;77.75;57.25;;;;;-2.88;68.49;102023.41;5067758;27;45624;-64
2022/12/18 02:41:23;;;;;;;;;76.50;55.50;;;;;-2.93;68.98;102011.91;5075725;27;45509;-65
2022/12/18 02:43:55;;;;;;;;;73.67;56.33;;;;;-3.08;69.02;102002.25;5074434;27;45291;-67
2022/12/18 02:46:35;;;;;;;;;73.75;56.25;;;;;-3.02;69.22;102002.72;5055370;27;45669;-65
2022/12/18 02:49:42;;;;;;;;;76.25;56.75;;;;;-3.08;69.79;102007.38;5071046;27;45731;-65
2022/12/18 02:52:37;;;;;;;;;82.00;59.25;;;;;-3.12;69.73;102005.34;5054821;27;47652;-65
2022/12/18 02:55:19;;;;;;;;;76.75;58.00;;;;;-3.17;69.92;101998.09;5023092;27;45560;-66
2022/12/18 02:57:55;;;;;;;;;75.25;56.25;;;;;-3.15;69.36;102001.69;5073886;27;45792;-64
2022/12/18 03:00:47;;;;;;;;;75.25;55.75;;;;;-3.22;69.81;101990.94;5058126;27;45771;-65
2022/12/18 03:03:15;;;;;;;;;82.50;58.50;;;;;-3.19;69.73;101997.97;5065356;27;45756;-65
2022/12/18 03:05:49;;;;;;;;;78.25;56.25;;;;;-3.29;70.03;101988.69;5072219;27;45616;-65
2022/12/18 03:08:20;;;;;;;;;78.00;58.75;;;;;-3.30;70.25;101985.97;5052776;27;45469;-65
2022/12/18 03:10:58;;;;;;;;;75.25;57.00;;;;;-3.36;70.67;101996.66;5066200;27;45427;-65
2022/12/18 03:13:33;;;;;;;;;81.00;57.75;;;;;-3.36;70.11;101993.22;5056816;28;45614;-65
2022/12/18 03:16:00;;;;;;;;;79.25;57.00;;;;;-3.38;70.27;101994.75;5056998;28;45374;-64
2022/12/18 03:18:35;;;;;;;;;78.25;57.75;;;;;-3.35;69.99;101994.97;5053827;28;45695;-64
2022/12/18 03:21:05;;;;;;;;;70.25;53.75;;;;;-3.47;70.62;101985.56;5053280;28;45654;-64
2022/12/18 03:23:39;;;;;;;;;73.75;56.75;;;;;-3.47;71.04;101987.22;5052644;28;46049;-65
2022/12/18 03:26:11;;;;;;;;;81.75;57.75;;;;;-3.42;70.93;101998.72;5052353;28;45541;-65
2022/12/18 03:28:45;;;;;;;;;78.50;56.75;;;;;-3.53;70.86;101992.78;5052501;28;45568;-65
2022/12/18 03:31:14;;;;;;;;;67.75;54.50;;;;;-3.59;70.42;101984.59;5054157;27;45413;-66
2022/12/18 03:33:52;;;;;;;;;76.50;55.00;;;;;-3.59;71.35;101997.41;5055563;28;48334;-64
2022/12/18 03:36:18;;;;;;;;;77.00;56.75;;;;;-3.66;71.07;101979.75;5056458;28;45375;-65
2022/12/18 03:38:44;;;;;;;;;72.75;54.00;;;;;-3.66;71.32;101979.75;5051987;28;45530;-64
2022/12/18 03:41:25;;;;;;;;;73.75;54.50;;;;;-3.58;70.68;101999.22;5056838;28;45584;-65
2022/12/18 03:44:14;;;;;;;;;73.75;53.00;;;;;-3.60;71.17;101994.75;5058891;28;45434;-65
2022/12/18 03:47:04;;;;;;;;;77.50;56.75;;;;;-3.63;71.31;101993.72;5052228;28;45479;-65
2022/12/18 03:49:39;;;;;;;;;79.25;58.00;;;;;-3.65;71.01;101989.25;5036975;28;45647;-64
2022/12/18 03:52:11;;;;;;;;;77.25;57.00;;;;;-3.72;71.54;101974.19;5056374;28;45411;-65
2022/12/18 03:54:39;;;;;;;;;72.00;56.50;;;;;-3.75;72.12;101990.19;5051967;28;45548;-66
2022/12/18 03:57:15;;;;;;;;;81.25;57.00;;;;;-3.99;71.55;101950.72;5034407;28;45458;-65
2022/12/18 03:59:42;;;;;;;;;79.75;59.75;;;;;-3.80;71.81;101963.31;5048800;28;45739;-65
2022/12/18 04:02:09;;;;;;;;;79.25;56.50;;;;;-3.75;71.91;101976.47;5034806;28;45540;-65
2022/12/18 04:04:39;;;;;;;;;75.00;57.50;;;;;-3.81;72.74;101963.22;5051576;28;45552;-66
2022/12/18 04:07:06;;;;;;;;;78.50;57.75;;;;;-3.83;72.34;101950.28;5052211;28;45534;-65
2022/12/18 04:09:34;;;;;;;;;78.00;57.00;;;;;-3.78;72.62;101953.19;5053310;28;45611;-65
2022/12/18 04:11:59;;;;;;;;;73.75;56.00;;;;;-3.72;71.93;101943.47;5056267;28;45723;-65
2022/12/18 04:14:25;;;;;;;;;75.50;57.50;;;;;-3.67;71.87;101955.84;5034663;28;47379;-65
2022/12/18 04:16:51;;;;;;;;;81.50;58.75;;;;;-3.62;71.80;101949.41;5052735;28;45502;-65
2022/12/18 04:19:16;;;;;;;;;76.00;55.75;;;;;-3.68;71.75;101950.59;5049448;28;46211;-64
2022/12/18 04:21:42;;;;;;;;;76.25;57.00;;;;;-3.66;71.88;101949.94;5033957;28;45808;-64
2022/12/18 04:24:08;;;;;;;;;78.00;56.50;;;;;-3.56;71.35;101956.69;5048749;28;46286;-65
2022/12/18 04:26:34;;;;;;;;;67.75;53.00;;;;;-3.49;71.22;101961.53;5048809;28;45892;-64
2022/12/18 04:28:59;;;;;;;;;78.00;57.25;;;;;-3.46;71.67;101958.31;5057689;28;45411;-65
2022/12/18 04:31:25;;;;;;;;;68.00;53.50;;;;;-3.56;70.71;101928.53;5038087;28;45552;-64
2022/12/18 04:33:51;;;;;;;;;79.75;57.50;;;;;-3.52;71.51;101952.69;5055235;28;45461;-64
2022/12/18 04:36:16;;;;;;;;;74.25;55.00;;;;;-3.65;71.16;101950.84;5051964;28;45557;-64
2022/12/18 04:38:42;;;;;;;;;80.50;56.50;;;;;-3.62;71.89;101959.66;5033812;28;45363;-64
2022/12/18 04:41:07;;;;;;;;;80.75;56.00;;;;;-3.59;71.38;101963.22;5053118;28;45325;-65
2022/12/18 04:43:33;;;;;;;;;77.25;57.50;;;;;-3.67;71.72;101953.28;5051502;28;45372;-65
2022/12/18 04:46:07;;;;;;;;;72.50;56.50;;;;;-3.62;71.94;101971.56;5051082;28;45549;-64
2022/12/18 04:48:33;;;;;;;;;73.50;56.25;;;;;-3.54;72.07;101975.59;5054717;28;45526;-65
2022/12/18 04:50:59;;;;;;;;;68.25;55.75;;;;;-3.62;71.91;101956.19;5047435;28;45660;-66
2022/12/18 04:53:25;;;;;;;;;70.25;54.25;;;;;-3.65;71.73;101958.53;5054264;28;45599;-64
2022/12/18 04:55:51;;;;;;;;;72.25;54.75;;;;;-3.58;71.58;101960.78;5059445;28;45611;-65
2022/12/18 04:58:16;;;;;;;;;75.75;54.00;;;;;-3.50;72.04;101969.97;5061310;28;45554;-66
2022/12/18 05:00:43;;;;;;;;;78.00;55.25;;;;;-3.49;71.78;101963.16;5059885;28;45520;-65
2022/12/18 05:03:09;;;;;;;;;63.50;51.00;;;;;-3.41;71.28;101980.03;5055708;28;46159;-64
2022/12/18 05:05:35;;;;;;;;;77.50;58.00;;;;;-3.45;71.63;101976.34;5056000;28;45494;-65
2022/12/18 05:08:01;;;;;;;;;79.75;59.00;;;;;-3.46;71.16;101978.78;5057626;28;45355;-65
2022/12/18 05:10:26;;;;;;;;;79.00;57.00;;;;;-3.60;71.79;101964.91;5055292;28;45397;-66
2022/12/18 05:12:57;;;;;;;;;78.25;54.50;;;;;-3.67;71.90;101952.38;5055082;28;45729;-64
2022/12/18 05:15:28;;;;;;;;;74.25;57.25;;;;;-3.56;71.55;101976.25;5052706;28;45749;-65
2022/12/18 05:17:53;;;;;;;;;68.25;53.00;;;;;-3.58;71.50;101968.47;5060097;28;45536;-64
2022/12/18 05:20:19;;;;;;;;;74.50;56.25;;;;;-3.47;71.12;101969.31;5036633;28;45529;-64
2022/12/18 05:22:45;;;;;;;;;73.75;57.00;;;;;-3.41;71.62;101977.47;5036279;28;46407;-65
2022/12/18 05:25:10;;;;;;;;;71.33;55.00;;;;;-3.36;70.68;101980.41;5054342;28;45595;-65
2022/12/18 05:27:36;;;;;;;;;77.75;55.25;;;;;-3.35;71.64;101993.31;5054201;28;45602;-65
2022/12/18 05:30:02;;;;;;;;;78.25;57.75;;;;;-3.42;71.33;101991.97;5062079;28;45596;-65
2022/12/18 05:32:28;;;;;;;;;71.50;56.25;;;;;-3.49;71.39;101989.69;5059910;28;45968;-65
2022/12/18 05:34:53;;;;;;;;;75.75;55.25;;;;;-3.51;71.65;101996.34;5054827;28;45589;-65
2022/12/18 05:37:19;;;;;;;;;77.75;54.25;;;;;-3.52;71.29;101986.88;5056062;28;45489;-65
2022/12/18 05:39:44;;;;;;;;;67.50;52.25;;;;;-3.43;71.12;102002.97;5056287;28;45705;-65
2022/12/18 05:42:09;;;;;;;;;72.00;56.00;;;;;-3.44;70.81;101995.16;5036775;28;47770;-64
2022/12/18 05:44:35;;;;;;;;;79.00;55.25;;;;;-3.38;71.69;102002.44;5057937;28;45431;-64
2022/12/18 05:47:00;;;;;;;;;77.00;53.75;;;;;-3.38;71.43;101994.75;5039528;28;45493;-64
2022/12/18 05:49:26;;;;;;;;;74.25;56.00;;;;;-3.43;70.82;101992.72;5053138;28;45429;-65
2022/12/18 05:51:52;;;;;;;;;72.75;50.75;;;;;-3.57;71.57;101967.69;5054610;28;45529;-64
2022/12/18 05:54:17;;;;;;;;;70.75;54.00;;;;;-3.48;71.67;101988.03;5024618;28;45351;-64
2022/12/18 05:56:43;;;;;;;;;78.25;54.25;;;;;-3.50;71.37;101985.31;5049955;28;45597;-65
2022/12/18 05:59:09;;;;;;;;;77.75;55.75;;;;;-3.68;72.02;101954.06;5052764;28;45718;-65
2022/12/18 06:01:35;;;;;;;;;74.25;56.00;;;;;-3.56;71.32;101968.56;5055538;28;46084;-65
2022/12/18 06:04:00;;;;;;;;;78.25;55.50;;;;;-3.63;71.77;101954.41;5057540;28;45566;-64
2022/12/18 06:06:28;;;;;;;;;79.00;58.75;;;;;-3.67;71.86;101960.06;5051553;28;45504;-65
2022/12/18 06:08:54;;;;;;;;;72.75;55.75;;;;;-3.69;71.42;101967.63;5055499;28;45851;-64
2022/12/18 06:11:22;;;;;;;;;75.50;54.50;;;;;-3.74;71.97;101963.81;5038720;28;46884;-63
2022/12/18 06:13:55;;;;;;;;;77.00;57.00;;;;;-3.73;72.01;101962.13;5036201;28;46209;-64
2022/12/18 06:16:20;;;;;;;;;71.50;56.25;;;;;-3.78;71.70;101946.41;5052125;28;45865;-66
2022/12/18 06:18:46;;;;;;;;;75.00;54.75;;;;;-3.80;71.98;101945.38;5055680;28;45618;-64
2022/12/18 06:21:11;;;;;;;;;71.75;52.75;;;;;-3.72;72.28;101957.16;5055144;28;46290;-65
2022/12/18 06:23:37;;;;;;;;;75.00;54.00;;;;;-3.84;71.77;101939.16;5056253;28;45371;-65
2022/12/18 06:26:05;;;;;;;;;70.50;55.25;;;;;-3.83;71.81;101937.47;5053473;28;45276;-65
2022/12/18 06:28:31;;;;;;;;;73.50;54.50;;;;;-3.77;71.82;101950.78;5053675;28;45687;-65
2022/12/18 06:30:56;;;;;;;;;64.75;44.75;;;;;-3.65;71.32;101955.97;5035244;28;46415;-65
2022/12/18 06:33:27;;;;;;;;;79.50;59.25;;;;;-3.63;71.23;101957.88;5053936;28;45351;-65
2022/12/18 06:35:53;;;;;;;;;72.75;56.25;;;;;-3.64;71.57;101957.75;5067690;28;45472;-65
2022/12/18 06:38:22;;;;;;;;;71.00;52.75;;;;;-3.78;71.92;101940.41;5056837;28;45503;-64
2022/12/18 06:40:47;;;;;;;;;76.50;56.00;;;;;-3.77;71.65;101948.22;5052921;27;47600;-65
2022/12/18 06:43:13;;;;;;;;;77.50;53.50;;;;;-3.71;71.85;101960.59;5056125;28;45579;-65
2022/12/18 06:45:38;;;;;;;;;72.25;55.25;;;;;-3.79;71.61;101946.31;5055558;28;45505;-65
2022/12/18 06:48:04;;;;;;;;;68.75;52.25;;;;;-3.85;71.88;101952.69;5056592;28;45452;-65
2022/12/18 06:50:30;;;;;;;;;63.50;53.25;;;;;-3.85;72.17;101955.25;5058207;28;46733;-65
2022/12/18 06:52:55;;;;;;;;;74.00;54.25;;;;;-3.82;72.42;101967.41;5052524;28;45838;-64
2022/12/18 06:55:21;;;;;;;;;68.00;52.25;;;;;-3.85;71.81;101949.25;5054594;28;45799;-64
2022/12/18 06:57:47;;;;;;;;;71.50;51.50;;;;;-3.78;71.84;101942.97;5058321;28;45533;-65
2022/12/18 07:00:13;;;;;;;;;70.75;53.75;;;;;-3.72;71.40;101943.47;5057951;28;46785;-65
2022/12/18 07:02:40;;;;;;;;;70.50;52.50;;;;;-3.72;71.59;101943.47;5036248;28;46842;-65
2022/12/18 07:05:06;;;;;;;;;65.75;52.75;;;;;-3.79;71.96;101936.06;5036705;28;45350;-65
2022/12/18 07:07:34;;;;;;;;;70.75;54.00;;;;;-3.83;71.22;101915.31;5054819;28;45436;-65
2022/12/18 07:09:59;;;;;;;;;73.50;56.00;;;;;-3.72;71.36;101936.66;5056519;28;45597;-64
2022/12/18 07:12:26;;;;;;;;;75.75;53.50;;;;;-3.81;71.25;101932.50;5036235;28;45861;-65
2022/12/18 07:14:52;;;;;;;;;75.25;53.75;;;;;-3.85;71.64;101932.22;5052967;28;45509;-65
2022/12/18 07:17:18;;;;;;;;;67.00;52.50;;;;;-3.88;71.79;101936.22;5055241;28;45573;-65
2022/12/18 07:19:43;;;;;;;;;73.75;53.25;;;;;-3.76;71.21;101932.06;5058693;28;45500;-65
2022/12/18 07:22:09;;;;;;;;;71.00;53.25;;;;;-3.74;71.29;101934.75;5054555;28;45445;-64
2022/12/18 07:24:34;;;;;;;;;75.25;52.75;;;;;-3.69;71.29;101936.00;5040539;28;45457;-66
2022/12/18 07:27:00;;;;;;;;;72.50;53.25;;;;;-3.73;71.01;101928.84;5053737;28;45584;-64
2022/12/18 07:29:26;;;;;;;;;68.25;54.50;;;;;-3.74;70.93;101932.19;5056712;28;45350;-65
2022/12/18 07:31:51;;;;;;;;;70.50;52.00;;;;;-3.69;71.10;101930.88;5054369;28;45667;-66
2022/12/18 07:34:17;;;;;;;;;70.00;54.75;;;;;-3.70;71.38;101926.53;5054073;28;45416;-65
2022/12/18 07:36:43;;;;;;;;;74.50;56.00;;;;;-3.65;70.89;101930.34;5054386;28;46003;-66
2022/12/18 07:39:10;;;;;;;;;73.75;53.50;;;;;-3.68;70.70;101936.13;5056772;28;45529;-65
2022/12/18 07:41:35;;;;;;;;;71.00;53.75;;;;;-3.57;70.58;101949.75;5060728;28;45667;-65
2022/12/18 07:44:01;;;;;;;;;67.75;51.00;;;;;-3.58;70.08;101944.50;5058280;28;46014;-65
2022/12/18 07:46:27;;;;;;;;;72.50;54.00;;;;;-3.68;70.62;101937.78;5055947;28;45299;-65
2022/12/18 07:48:52;;;;;;;;;59.00;41.50;;;;;-3.70;70.41;101955.59;5044243;28;45525;-64
2022/12/18 07:51:19;;;;;;;;;72.00;55.50;;;;;-3.78;70.75;101948.97;5057157;28;45319;-65
2022/12/18 07:53:45;;;;;;;;;80.00;56.00;;;;;-3.77;70.47;101948.22;5057098;28;45455;-64
2022/12/18 07:56:12;;;;;;;;;80.25;53.75;;;;;-3.69;70.42;101959.94;5057943;28;45556;-64
2022/12/18 07:58:38;;;;;;;;;73.50;57.00;;;;;-3.70;70.35;101960.72;5056387;28;46239;-65
2022/12/18 08:01:09;;;;;;;;;70.75;50.50;;;;;-3.80;70.72;101937.72;5053986;28;46038;-65
2022/12/18 08:03:36;;;;;;;;;74.50;53.50;;;;;-3.73;70.21;101947.66;5053905;28;45505;-65
2022/12/18 08:06:03;;;;;;;;;72.50;55.25;;;;;-3.75;70.79;101949.22;5053905;28;45516;-65
2022/12/18 08:08:29;;;;;;;;;74.75;55.50;;;;;-3.80;70.44;101939.38;5053257;28;46260;-66
2022/12/18 08:10:55;;;;;;;;;71.50;55.75;;;;;-4.09;70.98;101909.81;5058076;28;45581;-65
2022/12/18 08:13:21;;;;;;;;;69.25;52.75;;;;;-3.93;71.47;101938.41;5059929;28;45563;-65
2022/12/18 08:16:02;;;;;;;;;79.50;55.75;;;;;-3.86;71.08;101940.69;5047337;28;45495;-64
2022/12/18 08:18:28;;;;;;;;;67.00;51.50;;;;;-3.76;71.23;101944.88;5057606;28;45530;-65
2022/12/18 08:20:55;;;;;;;;;72.75;52.75;;;;;-3.67;70.98;101952.38;5065303;28;45466;-65
2022/12/18 08:23:21;;;;;;;;;63.75;44.75;;;;;-3.70;70.56;101947.00;5057682;28;45430;-65
2022/12/18 08:25:46;;;;;;;;;69.25;52.25;;;;;-3.58;69.94;101958.25;5057854;28;45470;-65
2022/12/18 08:28:12;;;;;;;;;72.25;55.75;;;;;-3.64;70.09;101958.63;5050321;28;46547;-65
2022/12/18 08:30:37;;;;;;;;;73.75;53.00;;;;;-3.60;70.24;101961.44;5077676;28;45386;-65
2022/12/18 08:33:03;;;;;;;;;73.00;53.00;;;;;-3.55;70.62;101957.59;5059536;28;45376;-65
2022/12/18 08:35:29;;;;;;;;;74.00;56.75;;;;;-3.43;70.00;101967.09;5071672;28;45520;-64
2022/12/18 08:37:54;;;;;;;;;66.50;53.75;;;;;-3.39;69.55;101977.56;5042527;28;45427;-66
2022/12/18 08:40:21;;;;;;;;;72.50;56.25;;;;;-3.35;69.90;101980.50;5035031;28;45525;-66
2022/12/18 08:45:31;;;;;;;;;74.00;55.75;;;;;-3.39;69.58;101963.13;5066922;28;45480;-64
2022/12/18 08:47:56;;;;;;;;;68.25;50.00;;;;;-3.27;69.02;101968.31;5046981;28;46797;-64
2022/12/18 08:50:22;;;;;;;;;71.00;51.25;;;;;-3.14;69.57;101968.47;5062932;27;45702;-65
2022/12/18 08:52:48;;;;;;;;;71.50;52.75;;;;;-3.03;68.41;101974.41;5061503;28;45501;-64
2022/12/18 08:55:13;;;;;;;;;75.50;56.25;;;;;-3.09;68.78;101973.94;5070057;28;45512;-64
2022/12/18 08:57:39;;;;;;;;;68.75;55.25;;;;;-2.97;68.45;101990.25;5070788;28;45766;-64
2022/12/18 09:00:05;;;;;;;;;76.75;56.25;;;;;-2.83;68.51;101996.44;5061864;28;45441;-64
2022/12/18 09:02:30;;;;;;;;;74.00;52.00;;;;;-2.69;68.54;101997.50;5054013;28;45381;-65
2022/12/18 09:04:56;;;;;;;;;77.50;55.75;;;;;-2.51;67.71;101990.28;5065637;28;45527;-64
2022/12/18 09:07:21;;;;;;;;;71.50;52.75;;;;;-2.44;67.12;101974.56;5048868;28;46728;-63
2022/12/18 09:09:47;;;;;;;;;73.75;53.75;;;;;-2.27;66.87;101965.56;5068026;28;45532;-63
2022/12/18 09:12:12;;;;;;;;;76.75;55.75;;;;;-2.23;66.55;101971.03;5074320;28;45351;-65
2022/12/18 09:14:38;;;;;;;;;68.67;52.67;;;;;-2.09;69.65;101972.00;5053995;28;45579;-64
2022/12/18 09:17:04;;;;;;;;;83.00;57.50;;;;;-2.12;65.56;101976.94;5059057;27;46083;-65
2022/12/18 09:19:29;;;;;;;;;72.00;54.75;;;;;-2.23;66.58;101977.81;5052792;28;45541;-65
2022/12/18 09:21:55;;;;;;;;;78.00;58.25;;;;;-2.40;65.54;101949.22;5056582;28;45681;-64
2022/12/18 09:24:20;;;;;;;;;71.50;50.75;;;;;-2.44;66.04;101979.72;5041582;28;45518;-63
2022/12/18 09:26:46;;;;;;;;;78.33;57.00;;;;;-2.73;66.41;101967.25;5038749;28;47068;-63
2022/12/18 09:29:11;;;;;;;;;74.25;57.00;;;;;-2.85;67.45;101977.47;5072858;28;45988;-65
2022/12/18 09:31:38;;;;;;;;;78.25;56.75;;;;;-3.01;67.86;101976.31;5065985;27;45399;-65
2022/12/18 09:34:04;;;;;;;;;76.50;57.00;;;;;-3.09;68.36;101967.13;5058564;28;45639;-65
2022/12/18 09:36:29;;;;;;;;;73.67;55.00;;;;;-3.05;68.99;101968.28;5076832;28;45482;-65
2022/12/18 09:38:55;;;;;;;;;75.00;55.00;;;;;-2.97;68.66;101971.41;5058480;28;45558;-65
2022/12/18 09:41:42;;;;;;;;;77.00;55.25;;;;;-2.98;68.04;101952.59;5076675;28;46840;-64
2022/12/18 09:44:23;;;;;;;;;73.25;54.25;;;;;-2.86;67.79;101965.44;5051125;28;45698;-66
2022/12/18 09:47:11;;;;;;;;;79.50;55.75;;;;;-2.90;68.21;101959.19;5062455;28;45527;-66
2022/12/18 09:49:43;;;;;;;;;76.75;52.25;;;;;-2.79;67.98;101973.72;5055648;28;45736;-64
2022/12/18 09:52:17;;;;;;;;;74.75;56.75;;;;;-2.78;68.35;101966.91;5057317;28;45621;-64
2022/12/18 09:54:48;;;;;;;;;75.50;55.00;;;;;-2.71;68.25;101969.16;5054824;28;45507;-64
2022/12/18 09:57:20;;;;;;;;;76.00;55.00;;;;;-2.61;67.41;101957.91;5054357;28;46712;-64
2022/12/18 09:59:59;;;;;;;;;76.00;56.00;;;;;-2.50;67.61;101958.72;5062597;27;45782;-64
2022/12/18 10:02:26;;;;;;;;;70.33;53.67;;;;;-2.47;67.12;101957.25;5055741;28;45742;-64
2022/12/18 10:05:11;;;;;;;;;72.50;56.00;;;;;-2.48;67.26;101949.47;5037775;28;46931;-64
2022/12/18 10:08:01;;;;;;;;;63.25;52.25;;;;;-2.50;66.97;101959.59;5062416;28;46106;-66
2022/12/18 10:10:36;;;;;;;;;75.50;57.50;;;;;-2.47;67.26;101952.13;5037348;28;45541;-64
2022/12/18 10:13:39;;;;;;;;;73.50;55.25;;;;;-2.42;67.04;101944.78;5054740;28;45607;-65
2022/12/18 10:16:39;;;;;;;;;72.50;55.25;;;;;-2.40;67.50;101946.66;4985337;28;45494;-64
2022/12/18 10:19:24;;;;;;;;;73.50;53.25;;;;;-2.30;66.96;101938.00;4992938;28;46725;-63
2022/12/18 10:21:59;;;;;;;;;72.33;52.33;;;;;-2.00;66.74;101952.13;5055649;28;45269;-64
2022/12/18 10:24:38;;;;;;;;;79.33;58.00;;;;;-1.89;66.22;101936.63;5053873;28;45477;-64
2022/12/18 10:27:26;;;;;;;;;73.33;56.00;;;;;-1.80;66.02;101927.00;5056397;28;45562;-63
2022/12/18 10:29:52;;;;;;;;;71.33;54.67;;;;;-1.58;65.25;101934.56;5074821;27;45582;-65
2022/12/18 10:32:28;;;;;;;;;76.00;56.67;;;;;-1.53;64.81;101923.78;5061424;27;45365;-64
2022/12/18 10:34:58;;;;;;;;;76.67;56.67;;;;;-1.45;64.72;101919.19;5066715;28;45438;-64
2022/12/18 10:37:27;;;;;;;;;75.33;53.33;;;;;-1.32;64.83;101921.81;5076625;27;45564;-64
2022/12/18 10:40:11;;;;;;;;;69.67;52.33;;;;;-1.18;64.05;101920.22;5076523;27;45486;-64
2022/12/18 10:42:37;;;;;;;;;74.67;55.33;;;;;-1.03;63.70;101922.03;5075526;28;45438;-65
2022/12/18 10:45:21;;;;;;;;;75.00;53.33;;;;;-0.99;63.85;101917.22;5077454;28;45462;-64
2022/12/18 10:47:49;;;;;;;;;71.33;48.67;;;;;-0.97;64.22;101925.00;5057067;28;45626;-65
2022/12/18 10:50:36;;;;;;;;;74.00;54.00;;;;;-1.01;63.79;101923.03;5072150;28;46079;-63
2022/12/18 10:53:04;;;;;;;;;65.00;50.00;;;;;-0.97;64.05;101920.78;5069596;28;45390;-63
2022/12/18 10:55:39;;;;;;;;;73.33;54.67;;;;;-1.07;63.69;101913.22;5049531;28;45520;-63
2022/12/18 10:58:33;;;;;;;;;67.33;53.33;;;;;-1.02;64.22;101914.44;5054172;28;45611;-65
2022/12/18 11:01:10;;;;;;;;;74.33;55.00;;;;;-1.01;63.52;101913.63;5053909;28;45643;-64
2022/12/18 11:03:49;;;;;;;;;74.33;52.33;;;;;-1.15;64.08;101909.25;5060092;28;45519;-63
2022/12/18 11:06:22;;;;;;;;;72.67;49.67;;;;;-1.12;64.14;101917.16;5054123;28;45465;-64
2022/12/18 11:09:20;;;;;;;;;70.00;54.33;;;;;-1.04;64.52;101905.72;5054890;28;45350;-65
2022/12/18 11:11:52;;;;;;;;;65.33;51.33;;;;;-1.02;64.21;101895.50;5054083;28;45860;-64
2022/12/18 11:14:23;;;;;;;;;72.00;54.67;;;;;-1.04;64.94;101892.88;5058006;28;45542;-65
2022/12/18 11:16:50;;;;;;;;;70.33;55.67;;;;;-1.10;64.53;101882.16;5071831;28;45442;-63
2022/12/18 11:19:37;;;;;;;;;72.67;55.33;;;;;-1.08;64.96;101886.59;5064431;28;45598;-65
2022/12/18 11:22:28;;;;;;;;;75.33;54.00;;;;;-0.95;64.64;101901.19;5042292;28;46995;-65
2022/12/18 11:25:15;;;;;;;;;76.00;53.33;;;;;-0.91;63.92;101899.72;5058256;28;45592;-65
2022/12/18 11:27:49;;;;;;;;;78.33;54.33;;;;;-0.90;65.30;101883.50;5065879;28;45750;-67